createdAt,value
2022-11-23T00:00:09.036Z,101214.56
2022-11-23T00:02:39.857Z,101212.91
2022-11-23T00:05:13.525Z,101207.66
2022-11-23T00:07:43.610Z,101207.19
2022-11-23T00:10:14.691Z,101212.03
2022-11-23T00:12:45.334Z,101205.94
2022-11-23T00:15:18.186Z,101205.13
2022-11-23T00:17:50.789Z,101209.16
2022-11-23T00:20:23.706Z,101199.38
2022-11-23T00:22:54.985Z,101192.03
2022-11-23T00:25:25.193Z,101200.44
2022-11-23T00:27:55.778Z,101208.81
2022-11-23T00:30:26.375Z,101207.91
2022-11-23T00:32:58.621Z,101205.84
2022-11-23T00:35:30.600Z,101207.72
2022-11-23T00:38:00.825Z,101204.00
2022-11-23T00:40:31.437Z,101204.75
2022-11-23T00:43:02.003Z,101209.94
2022-11-23T00:45:32.958Z,101211.50
2022-11-23T00:48:03.113Z,101217.84
2022-11-23T00:50:35.417Z,101201.66
2022-11-23T00:53:07.531Z,101200.03
2022-11-23T00:55:38.193Z,101199.22
2022-11-23T00:58:08.192Z,101187.13
2022-11-23T01:00:38.043Z,101194.75
2022-11-23T01:03:08.707Z,101201.94
2022-11-23T01:05:42.593Z,101192.69
2022-11-23T01:08:13.450Z,101199.84
2022-11-23T01:10:44.288Z,101204.69
2022-11-23T01:13:16.493Z,101197.03
2022-11-23T01:15:53.603Z,101194.66
2022-11-23T01:18:24.193Z,101199.50
2022-11-23T01:20:57.791Z,101192.69
2022-11-23T01:23:27.984Z,101186.66
2022-11-23T01:25:58.054Z,101190.75
2022-11-23T01:28:29.165Z,101193.56
2022-11-23T01:31:06.798Z,101192.00
2022-11-23T01:33:37.385Z,101194.03
2022-11-23T01:36:16.999Z,101188.84
2022-11-23T01:38:48.656Z,101183.19
2022-11-23T01:41:22.463Z,101188.47
2022-11-23T01:43:53.841Z,101186.81
2022-11-23T01:46:25.293Z,101186.47
2022-11-23T01:49:00.436Z,101177.19
2022-11-23T01:51:38.278Z,101182.03
2022-11-23T01:54:14.051Z,101184.00
2022-11-23T01:56:48.871Z,101180.00
2022-11-23T01:59:22.888Z,101180.84
2022-11-23T02:01:53.588Z,101169.91
2022-11-23T02:04:32.492Z,101169.91
2022-11-23T02:07:07.552Z,101172.25
2022-11-23T02:09:40.363Z,101167.38
2022-11-23T02:12:15.090Z,101171.38
2022-11-23T02:14:46.845Z,101169.28
2022-11-23T02:17:17.906Z,101166.38
2022-11-23T02:20:05.997Z,101157.84
2022-11-23T02:22:52.333Z,101156.59
2022-11-23T02:25:36.504Z,101158.50
2022-11-23T02:28:10.730Z,101151.94
2022-11-23T02:30:43.298Z,101152.25
2022-11-23T02:33:14.350Z,101145.34
2022-11-23T02:35:52.262Z,101148.16
2022-11-23T02:38:26.008Z,101157.34
2022-11-23T02:40:56.944Z,101149.69
2022-11-23T02:43:31.173Z,101144.41
2022-11-23T02:46:06.393Z,101140.44
2022-11-23T02:48:37.550Z,101144.88
2022-11-23T02:51:07.373Z,101146.53
2022-11-23T02:53:37.649Z,101158.25
2022-11-23T02:56:08.002Z,101142.94
2022-11-23T02:58:40.787Z,101149.03
2022-11-23T03:01:10.819Z,101155.53
2022-11-23T03:03:41.597Z,101149.41
2022-11-23T03:06:12.391Z,101142.88
2022-11-23T03:08:42.611Z,101147.63
2022-11-23T03:11:13.248Z,101148.72
2022-11-23T03:13:45.741Z,101146.59
2022-11-23T03:16:16.796Z,101148.94
2022-11-23T03:18:47.636Z,101159.41
2022-11-23T03:21:18.256Z,101152.16
2022-11-23T03:23:49.091Z,101153.41
2022-11-23T03:26:19.842Z,101148.94
2022-11-23T03:28:53.384Z,101153.41
2022-11-23T03:31:23.840Z,101152.22
2022-11-23T03:33:54.433Z,101155.84
2022-11-23T03:36:24.464Z,101146.25
2022-11-23T03:38:55.137Z,101152.72
2022-11-23T03:41:25.693Z,101153.53
2022-11-23T03:43:58.193Z,101157.19
2022-11-23T03:46:28.129Z,101156.34
2022-11-23T03:48:59.030Z,101164.00
2022-11-23T03:51:29.341Z,101161.47
2022-11-23T03:53:59.893Z,101161.84
2022-11-23T03:56:30.648Z,101165.41
2022-11-23T03:59:03.595Z,101159.34
2022-11-23T04:01:34.063Z,101177.78
2022-11-23T04:04:04.702Z,101172.50
2022-11-23T04:06:34.705Z,101172.50
2022-11-23T04:09:05.425Z,101175.31
2022-11-23T04:11:35.979Z,101172.50
2022-11-23T04:14:07.670Z,101176.97
2022-11-23T04:16:37.813Z,101184.25
2022-11-23T04:19:08.246Z,101183.06
2022-11-23T04:21:38.682Z,101188.69
2022-11-23T04:24:09.493Z,101193.88
2022-11-23T04:26:41.011Z,101188.63
2022-11-23T04:29:14.074Z,101188.16
2022-11-23T04:31:44.032Z,101193.78
2022-11-23T04:34:14.147Z,101200.22
2022-11-23T04:36:44.676Z,101201.06
2022-11-23T04:39:15.855Z,101209.94
2022-11-23T04:41:46.388Z,101209.13
2022-11-23T04:44:21.984Z,101213.59
2022-11-23T04:46:52.827Z,101217.22
2022-11-23T04:49:23.439Z,101215.69
2022-11-23T04:51:53.562Z,101216.50
2022-11-23T04:54:24.430Z,101218.16
2022-11-23T04:56:54.776Z,101217.06
2022-11-23T04:59:27.109Z,101224.91
2022-11-23T05:01:57.951Z,101220.28
2022-11-23T05:04:28.302Z,101206.81
2022-11-23T05:06:58.715Z,101212.25
2022-11-23T05:09:29.358Z,101220.50
2022-11-23T05:11:59.957Z,101213.84
2022-11-23T05:14:33.236Z,101213.59
2022-11-23T05:17:03.679Z,101209.66
2022-11-23T05:19:34.358Z,101208.91
2022-11-23T05:22:04.995Z,101211.84
2022-11-23T05:24:35.590Z,101209.84
2022-11-23T05:27:06.715Z,101218.78
2022-11-23T05:29:39.803Z,101218.38
2022-11-23T05:32:10.450Z,101216.38
2022-11-23T05:34:46.184Z,101214.00
2022-11-23T05:37:16.967Z,101206.38
2022-11-23T05:39:47.817Z,101215.28
2022-11-23T05:42:18.380Z,101214.53
2022-11-23T05:44:50.642Z,101215.44
2022-11-23T05:47:21.019Z,101227.72
2022-11-23T05:49:51.979Z,101215.84
2022-11-23T05:52:22.100Z,101226.69
2022-11-23T05:54:52.340Z,101214.59
2022-11-23T05:57:23.395Z,101227.88
2022-11-23T05:59:57.193Z,101221.00
2022-11-23T06:02:27.217Z,101227.47
2022-11-23T06:04:56.985Z,101226.22
2022-11-23T06:07:27.282Z,101216.06
2022-11-23T06:09:59.912Z,101221.72
2022-11-23T06:12:31.469Z,101226.94
2022-11-23T06:15:03.998Z,101223.66
2022-11-23T06:17:34.440Z,101233.69
2022-11-23T06:20:04.912Z,101237.66
2022-11-23T06:22:35.489Z,101236.75
2022-11-23T06:25:06.185Z,101227.66
2022-11-23T06:27:36.771Z,101226.28
2022-11-23T06:30:10.860Z,101230.53
2022-11-23T06:32:41.285Z,101225.88
2022-11-23T06:35:12.226Z,101227.25
2022-11-23T06:37:43.047Z,101222.06
2022-11-23T06:40:15.125Z,101228.28
2022-11-23T06:42:45.809Z,101230.38
2022-11-23T06:45:18.224Z,101223.53
2022-11-23T06:47:48.916Z,101221.97
2022-11-23T06:50:20.016Z,101218.75
2022-11-23T06:52:50.516Z,101221.22
2022-11-23T06:55:22.038Z,101223.28
2022-11-23T06:57:53.090Z,101211.88
2022-11-23T07:00:26.084Z,101205.75
2022-11-23T07:02:57.898Z,101202.47
2022-11-23T07:05:28.977Z,101200.00
2022-11-23T07:08:00.471Z,101202.41
2022-11-23T07:10:30.651Z,101198.69
2022-11-23T07:13:07.679Z,101208.81
2022-11-23T07:15:40.628Z,101203.88
2022-11-23T07:18:14.615Z,101203.00
2022-11-23T07:20:44.727Z,101202.53
2022-11-23T07:23:15.537Z,101194.75
2022-11-23T07:25:46.786Z,101198.34
2022-11-23T07:28:16.816Z,101188.50
2022-11-23T07:30:53.240Z,101189.63
2022-11-23T07:33:23.724Z,101181.44
2022-11-23T07:35:56.744Z,101183.03
2022-11-23T07:38:26.743Z,101173.19
2022-11-23T07:41:09.956Z,101161.72
2022-11-23T07:43:41.931Z,101157.56
2022-11-23T07:46:13.936Z,101156.22
2022-11-23T07:49:00.379Z,101148.72
2022-11-23T07:51:30.580Z,101144.88
2022-11-23T07:54:03.368Z,101143.50
2022-11-23T07:56:36.695Z,101144.09
2022-11-23T07:59:10.459Z,101138.16
2022-11-23T08:01:42.403Z,101140.69
2022-11-23T08:04:15.324Z,101131.81
2022-11-23T08:06:45.947Z,101129.78
2022-11-23T08:09:17.406Z,101130.66
2022-11-23T08:11:48.032Z,101121.22
2022-11-23T08:14:18.813Z,101126.13
2022-11-23T08:16:55.864Z,101114.16
2022-11-23T08:19:25.850Z,101109.63
2022-11-23T08:21:56.443Z,101103.75
2022-11-23T08:24:26.951Z,101099.88
2022-11-23T08:26:59.820Z,101088.63
2022-11-23T08:29:32.988Z,101086.81
2022-11-23T08:32:05.639Z,101074.38
2022-11-23T08:34:41.912Z,101068.38
2022-11-23T08:37:13.034Z,101063.53
2022-11-23T08:39:43.033Z,101056.53
2022-11-23T08:42:15.301Z,101052.06
2022-11-23T08:44:45.381Z,101063.66
2022-11-23T08:47:20.579Z,101054.31
2022-11-23T08:49:50.523Z,101047.44
2022-11-23T08:52:21.235Z,101045.16
2022-11-23T08:54:51.946Z,101045.22
2022-11-23T08:57:27.813Z,101039.97
2022-11-23T08:59:58.171Z,101039.16
2022-11-23T09:02:30.879Z,101032.16
2022-11-23T09:05:01.692Z,101019.84
2022-11-23T09:07:32.904Z,101023.41
2022-11-23T09:10:03.160Z,101020.84
2022-11-23T09:12:33.655Z,101015.81
2022-11-23T09:15:04.454Z,101009.47
2022-11-23T09:17:36.449Z,100997.84
2022-11-23T09:20:10.555Z,100999.75
2022-11-23T09:22:41.498Z,100993.41
2022-11-23T09:25:11.661Z,100989.16
2022-11-23T09:27:42.355Z,100985.31
2022-11-23T09:30:14.957Z,100984.66
2022-11-23T09:32:47.063Z,100973.78
2022-11-23T09:35:17.635Z,100970.25
2022-11-23T09:37:50.545Z,100973.63
2022-11-23T09:40:22.053Z,100962.34
2022-11-23T09:43:31.463Z,100948.13
2022-11-23T09:46:14.493Z,100947.47
2022-11-23T09:49:10.325Z,100934.94
2022-11-23T09:51:44.268Z,100923.63
2022-11-23T09:54:27.146Z,100919.63
2022-11-23T09:57:02.169Z,100912.41
2022-11-23T09:59:46.004Z,100899.88
2022-11-23T10:02:29.342Z,100897.53
2022-11-23T10:05:03.937Z,100887.41
2022-11-23T10:07:51.925Z,100883.81
2022-11-23T10:10:42.896Z,100861.53
2022-11-23T10:13:34.630Z,100862.44
2022-11-23T10:16:27.616Z,100859.25
2022-11-23T10:19:06.726Z,100851.19
2022-11-23T10:21:53.657Z,100844.72
2022-11-23T10:24:34.096Z,100834.16
2022-11-23T10:27:14.593Z,100830.97
2022-11-23T10:29:46.043Z,100823.66
2022-11-23T10:32:35.527Z,100822.91
2022-11-23T10:35:14.620Z,100811.97
2022-11-23T10:37:47.551Z,100820.16
2022-11-23T10:40:24.549Z,100808.44
2022-11-23T10:43:01.990Z,100811.31
2022-11-23T10:45:36.859Z,100803.66
2022-11-23T10:48:07.067Z,100809.38
2022-11-23T10:50:41.268Z,100802.09
2022-11-23T10:53:28.901Z,100800.09
2022-11-23T10:56:04.593Z,100792.41
2022-11-23T10:58:48.815Z,100782.66
2022-11-23T11:01:24.882Z,100784.72
2022-11-23T11:03:56.931Z,100782.69
2022-11-23T11:06:30.843Z,100783.16
2022-11-23T11:09:13.290Z,100776.69
2022-11-23T11:11:55.165Z,100764.53
2022-11-23T11:14:25.724Z,100755.22
2022-11-23T11:16:59.568Z,100762.50
2022-11-23T11:19:33.964Z,100749.94
2022-11-23T11:22:27.458Z,100753.19
2022-11-23T11:25:00.078Z,100753.63
2022-11-23T11:27:36.187Z,100754.03
2022-11-23T11:30:22.778Z,100748.38
2022-11-23T11:33:02.204Z,100743.09
2022-11-23T11:35:37.256Z,100735.41
2022-11-23T11:38:19.801Z,100737.84
2022-11-23T11:40:54.269Z,100732.97
2022-11-23T11:43:39.168Z,100732.56
2022-11-23T11:46:28.980Z,100731.72
2022-11-23T11:49:09.839Z,100732.16
2022-11-23T11:51:45.642Z,100728.50
2022-11-23T11:54:28.093Z,100719.56
2022-11-23T11:57:09.203Z,100720.38
2022-11-23T11:59:47.079Z,100720.00
2022-11-23T12:02:27.803Z,100709.84
2022-11-23T12:05:27.082Z,100710.25
2022-11-23T12:08:08.949Z,100715.13
2022-11-23T12:10:46.962Z,100715.50
2022-11-23T12:13:22.475Z,100712.66
2022-11-23T12:16:06.245Z,100711.47
2022-11-23T12:19:05.960Z,100715.91
2022-11-23T12:22:13.766Z,100715.50
2022-11-23T12:25:06.299Z,100715.94
2022-11-23T12:27:50.330Z,100717.13
2022-11-23T12:30:32.554Z,100725.66
2022-11-23T12:33:52.961Z,100719.91
2022-11-23T12:36:53.517Z,100722.75
2022-11-23T12:40:09.754Z,100724.38
2022-11-23T12:42:48.718Z,100723.16
2022-11-23T12:45:38.655Z,100717.88
2022-11-23T12:48:31.206Z,100727.19
2022-11-23T12:51:17.254Z,100725.94
2022-11-23T12:54:07.891Z,100719.88
2022-11-23T12:57:08.593Z,100726.72
2022-11-23T12:59:51.354Z,100727.13
2022-11-23T13:03:27.230Z,100731.09
2022-11-23T13:07:20.422Z,100730.66
2022-11-23T13:10:06.403Z,100728.16
2022-11-23T13:13:19.632Z,100733.03
2022-11-23T13:16:24.320Z,100736.66
2022-11-23T13:19:26.654Z,100727.72
2022-11-23T13:21:59.570Z,100722.88
2022-11-23T13:24:33.233Z,100719.63
2022-11-23T13:27:48.295Z,100719.59
2022-11-23T13:33:42.348Z,100716.34
2022-11-23T13:36:19.717Z,100717.56
2022-11-23T13:38:55.195Z,100718.75
2022-11-23T13:42:08.298Z,100712.69
2022-11-23T13:44:39.841Z,100718.34
2022-11-23T13:47:22.158Z,100703.38
2022-11-23T13:49:55.390Z,100709.84
2022-11-23T13:52:37.102Z,100706.59
2022-11-23T13:55:30.234Z,100706.19
2022-11-23T13:58:42.450Z,100700.91
2022-11-23T14:01:13.421Z,100696.06
2022-11-23T14:03:58.778Z,100696.50
2022-11-23T14:06:52.571Z,100704.16
2022-11-23T14:09:30.448Z,100694.44
2022-11-23T14:12:30.566Z,100702.91
2022-11-23T14:15:14.692Z,100699.25
2022-11-23T14:18:13.597Z,100701.25
2022-11-23T14:21:02.272Z,100713.78
2022-11-23T14:24:18.658Z,100712.16
2022-11-23T14:27:39.529Z,100710.53
2022-11-23T14:30:24.930Z,100709.72
2022-11-23T14:33:14.258Z,100716.59
2022-11-23T14:35:57.245Z,100707.69
2022-11-23T14:39:07.568Z,100716.97
2022-11-23T14:41:41.669Z,100720.19
2022-11-23T14:44:19.304Z,100714.53
2022-11-23T14:47:10.660Z,100710.88
2022-11-23T14:49:51.959Z,100717.75
2022-11-23T14:52:26.593Z,100717.72
2022-11-23T14:55:02.660Z,100727.41
2022-11-23T14:57:42.416Z,100718.13
2022-11-23T15:00:31.827Z,100721.75
2022-11-23T15:03:48.895Z,100714.84
2022-11-23T15:06:20.625Z,100712.00
2022-11-23T15:09:06.003Z,100730.19
2022-11-23T15:11:40.350Z,100716.44
2022-11-23T15:14:22.934Z,100713.19
2022-11-23T15:16:53.125Z,100717.66
2022-11-23T15:19:32.463Z,100715.22
2022-11-23T15:22:04.118Z,100724.94
2022-11-23T15:24:35.885Z,100720.88
2022-11-23T15:27:12.597Z,100719.28
2022-11-23T15:29:56.068Z,100720.47
2022-11-23T15:32:32.636Z,100712.34
2022-11-23T15:35:12.759Z,100724.47
2022-11-23T15:37:49.765Z,100722.03
2022-11-23T15:40:21.697Z,100718.41
2022-11-23T15:42:53.624Z,100720.41
2022-11-23T15:46:00.259Z,100717.56
2022-11-23T15:48:35.672Z,100710.25
2022-11-23T15:51:11.680Z,100717.91
2022-11-23T15:53:52.489Z,100720.31
2022-11-23T15:56:29.422Z,100715.78
2022-11-23T15:59:02.743Z,100716.16
2022-11-23T16:01:33.786Z,100719.00
2022-11-23T16:04:05.360Z,100723.84
2022-11-23T16:06:41.984Z,100722.66
2022-11-23T16:09:55.758Z,100715.78
2022-11-23T16:12:30.248Z,100717.41
2022-11-23T16:15:39.872Z,100721.03
2022-11-23T16:18:25.540Z,100718.19
2022-11-23T16:21:01.725Z,100725.06
2022-11-23T16:23:47.151Z,100707.28
2022-11-23T16:26:18.644Z,100713.75
2022-11-23T16:28:55.482Z,100716.13
2022-11-23T16:31:37.910Z,100713.31
2022-11-23T16:34:15.239Z,100715.72
2022-11-23T16:36:45.400Z,100708.84
2022-11-23T16:39:17.893Z,100714.50
2022-11-23T16:41:48.405Z,100711.63
2022-11-23T16:44:18.493Z,100716.06
2022-11-23T16:46:49.882Z,100718.47
2022-11-23T16:49:23.027Z,100714.00
2022-11-23T16:51:57.491Z,100713.56
2022-11-23T16:54:30.847Z,100715.59
2022-11-23T16:57:01.048Z,100713.94
2022-11-23T16:59:35.568Z,100708.28
2022-11-23T17:02:06.772Z,100716.34
2022-11-23T17:04:37.690Z,100711.91
2022-11-23T17:07:08.038Z,100715.56
2022-11-23T17:09:40.931Z,100713.53
2022-11-23T17:12:19.295Z,100713.94
2022-11-23T17:14:51.794Z,100706.28
2022-11-23T17:17:24.688Z,100712.34
2022-11-23T17:19:59.674Z,100704.69
2022-11-23T17:22:33.092Z,100708.31
2022-11-23T17:25:08.976Z,100697.81
2022-11-23T17:27:46.696Z,100709.13
2022-11-23T17:30:22.323Z,100703.47
2022-11-23T17:32:52.994Z,100697.81
2022-11-23T17:35:23.705Z,100698.63
2022-11-23T17:37:54.260Z,100695.81
2022-11-23T17:40:27.776Z,100690.94
2022-11-23T17:42:57.935Z,100690.56
2022-11-23T17:45:28.557Z,100684.91
2022-11-23T17:48:03.119Z,100683.28
2022-11-23T17:50:34.557Z,100681.66
2022-11-23T17:53:04.840Z,100671.53
2022-11-23T17:55:37.341Z,100669.09
2022-11-23T17:58:07.979Z,100674.34
2022-11-23T18:00:40.275Z,100674.72
2022-11-23T18:03:10.509Z,100675.09
2022-11-23T18:05:41.175Z,100675.09
2022-11-23T18:08:13.734Z,100674.69
2022-11-23T18:10:45.384Z,100673.06
2022-11-23T18:13:16.018Z,100669.81
2022-11-23T18:15:46.510Z,100660.50
2022-11-23T18:18:16.568Z,100660.09
2022-11-23T18:20:47.105Z,100659.66
2022-11-23T18:23:16.989Z,100658.88
2022-11-23T18:26:00.780Z,100659.25
2022-11-23T18:28:32.392Z,100670.16
2022-11-23T18:31:03.054Z,100666.88
2022-11-23T18:33:33.767Z,100666.09
2022-11-23T18:36:05.740Z,100666.47
2022-11-23T18:38:37.487Z,100669.69
2022-11-23T18:41:10.387Z,100661.97
2022-11-23T18:43:41.127Z,100667.56
2022-11-23T18:46:13.199Z,100659.06
2022-11-23T18:48:44.112Z,100665.09
2022-11-23T18:51:14.693Z,100659.03
2022-11-23T18:53:48.127Z,100660.22
2022-11-23T18:56:21.994Z,100660.63
2022-11-23T18:58:53.168Z,100655.34
2022-11-23T19:01:25.447Z,100653.72
2022-11-23T19:03:56.955Z,100654.13
2022-11-23T19:06:27.904Z,100661.78
2022-11-23T19:08:58.882Z,100666.63
2022-11-23T19:11:32.917Z,100668.22
2022-11-23T19:14:03.815Z,100673.03
2022-11-23T19:16:35.612Z,100670.59
2022-11-23T19:19:08.315Z,100666.97
2022-11-23T19:21:39.629Z,100665.34
2022-11-23T19:24:11.724Z,100674.19
2022-11-23T19:26:44.216Z,100679.44
2022-11-23T19:29:15.275Z,100671.34
2022-11-23T19:31:45.408Z,100673.72
2022-11-23T19:34:17.824Z,100679.38
2022-11-23T19:36:49.057Z,100684.22
2022-11-23T19:39:19.941Z,100680.59
2022-11-23T19:41:52.617Z,100683.00
2022-11-23T19:44:23.226Z,100676.09
2022-11-23T19:46:54.065Z,100680.94
2022-11-23T19:49:24.872Z,100673.66
2022-11-23T19:51:56.527Z,100660.72
2022-11-23T19:54:27.246Z,100672.03
2022-11-23T19:56:59.251Z,100681.34
2022-11-23T19:59:29.414Z,100672.44
2022-11-23T20:02:00.169Z,100676.00
2022-11-23T20:04:30.889Z,100681.22
2022-11-23T20:07:01.366Z,100684.84
2022-11-23T20:09:31.824Z,100686.81
2022-11-23T20:12:04.110Z,100687.56
2022-11-23T20:14:34.180Z,100691.19
2022-11-23T20:17:04.885Z,100691.91
2022-11-23T20:19:35.611Z,100704.78
2022-11-23T20:22:06.439Z,100703.56
2022-11-23T20:24:37.049Z,100712.78
2022-11-23T20:27:09.837Z,100717.19
2022-11-23T20:29:42.024Z,100718.75
2022-11-23T20:32:13.551Z,100712.69
2022-11-23T20:34:44.374Z,100713.03
2022-11-23T20:37:14.133Z,100704.13
2022-11-23T20:39:44.849Z,100702.88
2022-11-23T20:42:17.400Z,100700.06
2022-11-23T20:44:48.108Z,100716.56
2022-11-23T20:47:18.847Z,100708.03
2022-11-23T20:49:48.718Z,100695.09
2022-11-23T20:52:18.788Z,100690.59
2022-11-23T20:54:49.664Z,100684.50
2022-11-23T20:57:22.690Z,100690.53
2022-11-23T20:59:53.797Z,100683.25
2022-11-23T21:02:23.874Z,100690.91
2022-11-23T21:04:55.264Z,100669.56
2022-11-23T21:07:27.942Z,100667.09
2022-11-23T21:09:58.857Z,100660.22
2022-11-23T21:12:50.630Z,100654.13
2022-11-23T21:15:21.227Z,100669.00
2022-11-23T21:17:52.723Z,100665.38
2022-11-23T21:20:23.313Z,100664.56
2022-11-23T21:22:54.355Z,100667.38
2022-11-23T21:25:24.726Z,100676.66
2022-11-23T21:27:56.950Z,100672.59
2022-11-23T21:30:27.009Z,100671.75
2022-11-23T21:32:57.806Z,100657.25
2022-11-23T21:35:27.945Z,100677.00
2022-11-23T21:37:58.798Z,100681.41
2022-11-23T21:40:28.924Z,100687.06
2022-11-23T21:43:00.809Z,100684.25
2022-11-23T21:45:31.442Z,100685.06
2022-11-23T21:48:02.183Z,100677.78
2022-11-23T21:50:32.813Z,100677.31
2022-11-23T21:53:03.919Z,100666.44
2022-11-23T21:55:35.004Z,100672.88
2022-11-23T21:58:07.106Z,100677.72
2022-11-23T22:00:38.623Z,100678.50
2022-11-23T22:03:08.763Z,100682.97
2022-11-23T22:05:39.686Z,100680.97
2022-11-23T22:11:00.640Z,100661.59
2022-11-23T22:13:36.742Z,100663.63
2022-11-23T22:16:19.480Z,100675.34
2022-11-23T22:18:55.394Z,100668.53
2022-11-23T22:21:30.024Z,100666.03
2022-11-23T22:24:02.551Z,100680.97
2022-11-23T22:26:33.277Z,100683.34
2022-11-23T22:29:07.231Z,100682.53
2022-11-23T22:31:38.233Z,100668.38
2022-11-23T22:34:13.279Z,100670.84
2022-11-23T22:36:43.877Z,100662.72
2022-11-23T22:39:14.064Z,100660.75
2022-11-23T22:41:44.744Z,100661.50
2022-11-23T22:44:16.720Z,100659.03
2022-11-23T22:46:48.349Z,100665.72
2022-11-23T22:49:19.574Z,100663.63
2022-11-23T22:51:50.302Z,100668.34
2022-11-23T22:54:21.236Z,100657.81
2022-11-23T22:56:51.921Z,100659.81
2022-11-23T22:59:24.903Z,100650.53
2022-11-23T23:01:55.537Z,100652.16
2022-11-23T23:04:26.399Z,100646.13
2022-11-23T23:06:58.196Z,100647.78
2022-11-23T23:09:28.057Z,100652.59
2022-11-23T23:11:57.935Z,100648.97
2022-11-23T23:14:30.269Z,100649.78
2022-11-23T23:17:02.943Z,100646.56
2022-11-23T23:19:33.964Z,100650.22
2022-11-23T23:22:04.153Z,100639.31
2022-11-23T23:24:35.316Z,100636.44
2022-11-23T23:27:05.589Z,100627.94
2022-11-23T23:29:39.433Z,100631.94
2022-11-23T23:32:10.167Z,100628.31
2022-11-23T23:34:40.475Z,100628.31
2022-11-23T23:37:12.787Z,100632.78
2022-11-23T23:39:42.941Z,100641.22
2022-11-23T23:42:13.030Z,100635.16
2022-11-23T23:44:44.777Z,100631.88
2022-11-23T23:47:15.328Z,100632.63
2022-11-23T23:49:46.064Z,100633.41
2022-11-23T23:52:16.648Z,100629.75
2022-11-23T23:54:47.139Z,100634.22
2022-11-23T23:57:17.681Z,100637.84
2022-11-23T23:59:49.895Z,100630.22
